Terminal Aerodrome Forecast
Issued by NWS

Home | Current Version | Previous Version | Text Only | Print | Product List | Glossary On
Versions: 1 2 3 4 5 6 7 8 9 10 11 12 13 14 15 16 17 18 19 20 21 22 23 24 25
000
FTUS43 KMQT 030500
TAFSAW
TAF
KSAW 030539Z 0306/0406 20003KT P6SM SCT120
     FM031500 22011G16KT P6SM FEW200
     FM032100 18011KT P6SM BKN100
     FM040500 18008KT P6SM VCSH BKN060
      AMD LTD TO CLD VIS AND WIND TIL 031000=

USA.gov is the U.S. government's official web portal to all federal, state and local government web resources and services.